No particular awareness of the weather is required.    There are no Weather-warnings


Meteo18 Weather Cam more information Meteo18 Weather Cam


Thunder radar more information blitzortung!


Rain radar more information rain snow radar


Visit our other weather sites:

Template documentation
and downloads

And another site



Weather Underground History page Text

Daily Summary for August 24, 2017 Units:  English    Metric   Both
« Previous Day
Next Day »
Daily Weekly Monthly Yearly Custom
  High: Low: Average:
Temperature: 84.7 °F 59.7 °F 71.6 °F
Dew Point: 66.6 °F 57.9 °F 62.6 °F
Humidity: 96 % 49 % 75 %
Wind Speed: 9 mph 0 mph 1.7 mph
Wind Gust: 14 mph - -
Wind:- - SE
Pressure: 30.1 in 30 in -
Precipitation: 0 in    
Historical Graphs
 
 
Tabular Data for August 24, 2017
Time Temperature Dew Point Pressure Wind Wind Speed Wind Gust Humidity Rainfall Rate (Hourly)
00:02 65.5 °F 61.2 °F 30.1 in Calm   1 mph 86 % 0 in
00:07 65.1 °F 60.8 °F 30.1 in Calm   2 mph 86 % 0 in
00:12 65.1 °F 61.2 °F 30.1 in Calm   2 mph 87 % 0 in
00:17 64.9 °F 61 °F 30.1 in Calm   1 mph 87 % 0 in
00:22 64.8 °F 61.2 °F 30.1 in Calm     88 % 0 in
00:27 64.4 °F 60.8 °F 30.1 in Calm     88 % 0 in
00:32 64.2 °F 61 °F 30.1 in Calm     89 % 0 in
00:37 64 °F 60.8 °F 30.1 in Calm     89 % 0 in
00:42 63.9 °F 60.6 °F 30.1 in Calm     89 % 0 in
00:52 63.9 °F 60.6 °F 30.1 in Calm     89 % 0 in
00:57 63.7 °F 60.6 °F 30.1 in WNW 2 mph   90 % 0 in
01:02 63.7 °F 60.6 °F 30.1 in Calm     90 % 0 in
01:07 63.7 °F 60.6 °F 30.1 in WNW 1 mph 2 mph 90 % 0 in
01:12 63.7 °F 60.6 °F 30.1 in WNW 1 mph 2 mph 90 % 0 in
01:17 63.7 °F 61 °F 30.1 in WNW 1 mph 2 mph 91 % 0 in
01:22 63.3 °F 60.6 °F 30.1 in WNW 2 mph 2 mph 91 % 0 in
01:32 63 °F 60.3 °F 30.1 in Calm   2 mph 91 % 0 in
01:37 63 °F 60.6 °F 30.1 in Calm   2 mph 92 % 0 in
01:42 63 °F 60.6 °F 30.1 in Calm   2 mph 92 % 0 in
01:47 63 °F 60.6 °F 30.1 in Calm   1 mph 92 % 0 in
01:52 63 °F 61 °F 30.1 in NW 1 mph 1 mph 93 % 0 in
01:57 63.3 °F 61 °F 30.1 in North 2 mph 2 mph 92 % 0 in
02:02 63.5 °F 60.8 °F 30.1 in NNW 1 mph 2 mph 91 % 0 in
02:07 63.3 °F 60.6 °F 30.1 in NNW 3 mph 3 mph 91 % 0 in
02:12 63.3 °F 60.6 °F 30.1 in NW 1 mph 3 mph 91 % 0 in
02:17 63.3 °F 60.6 °F 30.1 in WNW 1 mph 3 mph 91 % 0 in
02:22 63 °F 60.3 °F 30.1 in WNW 1 mph 3 mph 91 % 0 in
02:27 63 °F 60.6 °F 30.1 in Calm   2 mph 92 % 0 in
02:32 63 °F 60.3 °F 30.1 in Calm   2 mph 91 % 0 in
02:37 63 °F 60.3 °F 30.1 in Calm   2 mph 91 % 0 in
02:42 62.8 °F 60.1 °F 30.1 in WNW 1 mph 2 mph 91 % 0 in
02:47 62.4 °F 60.1 °F 30.1 in NW 1 mph 1 mph 92 % 0 in
02:52 62.6 °F 60.3 °F 30.1 in NW 1 mph 1 mph 92 % 0 in
02:57 62.8 °F 60.4 °F 30.1 in Calm   2 mph 92 % 0 in
03:02 62.6 °F 59.9 °F 30.1 in Calm   2 mph 91 % 0 in
03:12 62.4 °F 60.1 °F 30.1 in Calm   2 mph 92 % 0 in
03:17 62.4 °F 60.1 °F 30.1 in Calm   1 mph 92 % 0 in
03:22 62.4 °F 60.1 °F 30.1 in Calm   1 mph 92 % 0 in
03:27 62.4 °F 60.1 °F 30.1 in Calm   1 mph 92 % 0 in
03:32 62.2 °F 59.9 °F 30.1 in Calm   1 mph 92 % 0 in
03:37 62.1 °F 59.7 °F 30.1 in Calm     92 % 0 in
03:42 62.1 °F 59.7 °F 30.1 in Calm     92 % 0 in
03:52 62.1 °F 60.1 °F 30.1 in Calm     93 % 0 in
03:57 61.9 °F 59.9 °F 30.1 in Calm     93 % 0 in
04:02 61.5 °F 59.2 °F 30.1 in Calm     92 % 0 in
04:07 61.2 °F 58.8 °F 30.1 in Calm     92 % 0 in
04:12 60.4 °F 58.1 °F 30.1 in Calm     92 % 0 in
04:17 60.3 °F 58.3 °F 30.1 in Calm     93 % 0 in
04:22 60.3 °F 58.3 °F 30.1 in Calm     93 % 0 in
04:32 60.3 °F 58.3 °F 30.1 in Calm     93 % 0 in
04:42 59.9 °F 58.1 °F 30.1 in Calm     94 % 0 in
04:47 59.7 °F 57.9 °F 30.1 in Calm   1 mph 94 % 0 in
04:52 59.7 °F 57.9 °F 30.1 in North 1 mph 1 mph 94 % 0 in
04:57 60.3 °F 58.8 °F 30.1 in Calm   4 mph 95 % 0 in
05:02 60.3 °F 58.5 °F 30.1 in Calm   4 mph 94 % 0 in
05:12 59.7 °F 57.9 °F 30.1 in Calm   2 mph 94 % 0 in
05:17 59.7 °F 57.9 °F 30.1 in Calm     94 % 0 in
05:22 59.7 °F 58.3 °F 30.1 in Calm     95 % 0 in
05:32 59.9 °F 58.5 °F 30.1 in Calm     95 % 0 in
05:42 60.1 °F 58.6 °F 30.1 in Calm     95 % 0 in
05:52 60.1 °F 58.6 °F 30.1 in Calm   1 mph 95 % 0 in
05:57 59.9 °F 58.5 °F 30.1 in NNW 1 mph 2 mph 95 % 0 in
06:02 59.7 °F 58.3 °F 30.1 in North 1 mph 2 mph 95 % 0 in
06:07 59.7 °F 58.3 °F 30.1 in Calm   2 mph 95 % 0 in
06:12 59.7 °F 58.3 °F 30.1 in Calm   2 mph 95 % 0 in
06:17 59.7 °F 58.3 °F 30.1 in NNW 1 mph 2 mph 95 % 0 in
06:22 59.7 °F 58.3 °F 30.1 in Calm   2 mph 95 % 0 in
06:27 59.7 °F 58.3 °F 30.1 in NNW 1 mph 2 mph 95 % 0 in
06:32 59.7 °F 58.3 °F 30.1 in North 1 mph 2 mph 95 % 0 in
06:42 59.7 °F 58.3 °F 30.1 in North 2 mph 3 mph 95 % 0 in
06:47 59.7 °F 58.3 °F 30.1 in Calm   3 mph 95 % 0 in
06:57 60.1 °F 58.6 °F 30.1 in Calm   3 mph 95 % 0 in
07:02 59.9 °F 58.5 °F 30.1 in Calm   4 mph 95 % 0 in
07:07 59.7 °F 58.3 °F 30.1 in Calm   4 mph 95 % 0 in
07:12 60.1 °F 59 °F 30.1 in North 2 mph 4 mph 96 % 0 in
07:17 60.1 °F 59 °F 30.1 in Calm   4 mph 96 % 0 in
07:27 60.3 °F 58.8 °F 30.1 in NE 1 mph 3 mph 95 % 0 in
07:32 60.4 °F 59.4 °F 30.1 in Calm   3 mph 96 % 0 in
07:37 60.6 °F 59.5 °F 30.1 in Calm   3 mph 96 % 0 in
07:42 61 °F 59.5 °F 30.1 in Calm   4 mph 95 % 0 in
07:47 61.3 °F 59.9 °F 30.1 in North 3 mph 4 mph 95 % 0 in
07:52 61.5 °F 60.1 °F 30.1 in North 1 mph 4 mph 95 % 0 in
07:57 61.9 °F 60.4 °F 30.1 in Calm   4 mph 95 % 0 in
08:02 62.1 °F 60.3 °F 30.1 in Calm   3 mph 94 % 0 in
08:07 62.2 °F 60.4 °F 30.1 in North 1 mph 3 mph 94 % 0 in
08:12 62.4 °F 60.6 °F 30.1 in NNW 1 mph 4 mph 94 % 0 in
08:17 62.8 °F 60.8 °F 30.1 in NW 1 mph 4 mph 93 % 0 in
08:22 63.1 °F 61.2 °F 30.1 in Calm   5 mph 93 % 0 in
08:27 63.3 °F 61 °F 30.1 in North 3 mph 5 mph 92 % 0 in
08:32 63.7 °F 61 °F 30.1 in NNE 2 mph 4 mph 91 % 0 in
08:37 63.9 °F 61.2 °F 30.1 in NNE 1 mph 4 mph 91 % 0 in
08:42 64.2 °F 61.2 °F 30.1 in NNE 2 mph 5 mph 90 % 0 in
08:47 64.6 °F 61.3 °F 30.1 in NE 3 mph 5 mph 89 % 0 in
08:52 64.8 °F 61.5 °F 30.1 in NNW 2 mph 4 mph 89 % 0 in
08:57 64.9 °F 61.3 °F 30.1 in NE 3 mph 4 mph 88 % 0 in
09:02 65.1 °F 61.5 °F 30.1 in NNE 6 mph 6 mph 88 % 0 in
09:07 65.5 °F 61.5 °F 30.1 in NNW 3 mph 6 mph 87 % 0 in
09:12 65.8 °F 61.9 °F 30.1 in NE 3 mph 7 mph 87 % 0 in
09:17 66.2 °F 62.2 °F 30.1 in NNW 2 mph 7 mph 87 % 0 in
09:22 66.7 °F 62.1 °F 30.1 in NNE 3 mph 7 mph 85 % 0 in
09:32 67.1 °F 62.1 °F 30.1 in NE 6 mph 7 mph 84 % 0 in
09:37 67.1 °F 62.1 °F 30.1 in NE 6 mph 7 mph 84 % 0 in
09:42 67.1 °F 62.4 °F 30.1 in ENE 4 mph 8 mph 85 % 0 in
09:47 67.1 °F 61.7 °F 30.1 in East 6 mph 8 mph 83 % 0 in
09:52 67.1 °F 62.4 °F 30.1 in East 3 mph 9 mph 85 % 0 in
09:57 67.5 °F 62.4 °F 30.1 in East 4 mph 9 mph 84 % 0 in
10:02 68.2 °F 63.5 °F 30.1 in SE 2 mph 9 mph 85 % 0 in
10:07 68.7 °F 63 °F 30.1 in East 2 mph 9 mph 82 % 0 in
10:12 68.5 °F 62.8 °F 30.1 in East 4 mph 7 mph 82 % 0 in
10:17 68.7 °F 63 °F 30.1 in ENE 1 mph 7 mph 82 % 0 in
10:22 69.1 °F 63.3 °F 30.1 in SE 2 mph 6 mph 82 % 0 in
10:27 69.4 °F 63.3 °F 30.1 in East 3 mph 6 mph 81 % 0 in
10:32 70 °F 63.5 °F 30.1 in Calm   6 mph 80 % 0 in
10:37 70 °F 62.8 °F 30.1 in ENE 4 mph 6 mph 78 % 0 in
10:42 69.6 °F 63.1 °F 30.1 in ENE 1 mph 6 mph 80 % 0 in
10:47 70.3 °F 63.9 °F 30.1 in SE 1 mph 6 mph 80 % 0 in
10:52 70.5 °F 63.3 °F 30.1 in ENE 3 mph 6 mph 78 % 0 in
10:57 70.9 °F 63.7 °F 30.1 in NE 1 mph 6 mph 78 % 0 in
11:02 71.2 °F 63.7 °F 30.1 in Calm   6 mph 77 % 0 in
11:07 72.1 °F 64.6 °F 30.1 in Calm   6 mph 77 % 0 in
11:12 72.7 °F 63.9 °F 30.1 in Calm   5 mph 74 % 0 in
11:17 73.4 °F 64.6 °F 30.1 in East 1 mph 5 mph 74 % 0 in
11:22 73.9 °F 64.8 °F 30.1 in East 1 mph 3 mph 73 % 0 in
11:27 74.3 °F 64.2 °F 30.1 in ENE 4 mph 4 mph 71 % 0 in
11:32 73.8 °F 64.6 °F 30.1 in ENE 5 mph 6 mph 73 % 0 in
11:37 74.7 °F 65.1 °F 30.1 in East 4 mph 6 mph 72 % 0 in
11:42 75 °F 64.9 °F 30.1 in SSW 1 mph 6 mph 71 % 0 in
11:47 75.7 °F 64.4 °F 30.1 in Calm   6 mph 68 % 0 in
11:52 76.6 °F 65.3 °F 30.1 in SE 1 mph 5 mph 68 % 0 in
12:02 76.5 °F 64.8 °F 30.1 in Calm   5 mph 67 % 0 in
12:07 77.2 °F 64.6 °F 30.1 in ENE 2 mph 5 mph 65 % 0 in
12:12 77.2 °F 64.9 °F 30.1 in East 2 mph 4 mph 66 % 0 in
12:17 76.5 °F 64.2 °F 30.1 in East 1 mph 4 mph 66 % 0 in
12:22 76.6 °F 64.4 °F 30.1 in East 3 mph 8 mph 66 % 0 in
12:32 76.5 °F 64.2 °F 30.1 in NE 2 mph 8 mph 66 % 0 in
12:37 76.8 °F 63.7 °F 30.1 in ENE 3 mph 8 mph 64 % 0 in
12:42 77.2 °F 63.1 °F 30.1 in ENE 2 mph 6 mph 62 % 0 in
12:47 77.4 °F 63.9 °F 30.1 in ENE 4 mph 6 mph 63 % 0 in
12:52 77.4 °F 64.8 °F 30.1 in SSE 1 mph 6 mph 65 % 0 in
13:02 77.9 °F 63.9 °F 30.1 in ENE 4 mph 7 mph 62 % 0 in
13:12 79 °F 63.9 °F 30.1 in ENE 3 mph 7 mph 60 % 0 in
13:17 78.8 °F 63.7 °F 30.1 in ESE 2 mph 7 mph 60 % 0 in
13:22 79.9 °F 64.8 °F 30.1 in Calm   7 mph 60 % 0 in
13:32 79.9 °F 64.2 °F 30.1 in East 1 mph 5 mph 59 % 0 in
13:42 80.1 °F 63.9 °F 30.1 in East 2 mph 6 mph 58 % 0 in
13:47 80.4 °F 64.2 °F 30.1 in ESE 2 mph 7 mph 58 % 0 in
13:52 80.4 °F 64.2 °F 30.1 in ENE 2 mph 7 mph 58 % 0 in
13:57 80.4 °F 64.8 °F 30.1 in ENE 6 mph 7 mph 59 % 0 in
14:07 80.4 °F 64.2 °F 30.1 in SW 4 mph 10 mph 58 % 0 in
14:12 80.4 °F 64.2 °F 30.1 in ENE 2 mph 10 mph 58 % 0 in
14:17 80.4 °F 64.2 °F 30.1 in ENE 5 mph 9 mph 58 % 0 in
14:22 80.8 °F 63.7 °F 30.1 in East 4 mph 9 mph 56 % 0 in
14:32 81.3 °F 65.1 °F 30.1 in SSE 5 mph 9 mph 58 % 0 in
14:42 81.7 °F 64.4 °F 30.1 in East 3 mph 8 mph 56 % 0 in
14:47 81.9 °F 65.1 °F 30.1 in ENE 2 mph 9 mph 57 % 0 in
14:52 82 °F 64.2 °F 30.1 in ESE 2 mph 9 mph 55 % 0 in
14:57 83.1 °F 63.1 °F 30.1 in SE 4 mph 7 mph 51 % 0 in
15:02 83.7 °F 64.8 °F 30.1 in Calm   7 mph 53 % 0 in
15:12 84 °F 64.6 °F 30.1 in SW 5 mph 5 mph 52 % 0 in
15:17 84 °F 65.1 °F 30.1 in East 1 mph 6 mph 53 % 0 in
15:22 83.8 °F 63.9 °F 30.1 in SW 2 mph 6 mph 51 % 0 in
15:32 83.7 °F 64.8 °F 30.1 in Calm   6 mph 53 % 0 in
15:37 84.4 °F 65.3 °F 30 in SSW 3 mph 6 mph 53 % 0 in
15:42 84.6 °F 63.9 °F 30 in Calm   6 mph 50 % 0 in
15:47 84 °F 62.8 °F 30 in West 3 mph 6 mph 49 % 0 in
15:52 83.5 °F 63 °F 30 in WNW 1 mph 6 mph 50 % 0 in
15:57 83.8 °F 63.9 °F 30 in Calm   6 mph 51 % 0 in
16:02 84.4 °F 64.2 °F 30 in East 1 mph 6 mph 51 % 0 in
16:12 83.8 °F 65.5 °F 30 in SE 1 mph 5 mph 54 % 0 in
16:17 83.8 °F 64.4 °F 30 in ESE 1 mph 12 mph 52 % 0 in
16:22 83.3 °F 63.3 °F 30 in ENE 4 mph 12 mph 51 % 0 in
16:27 83.1 °F 64.2 °F 30 in NE 2 mph 8 mph 53 % 0 in
16:32 83.7 °F 64.2 °F 30 in Calm   8 mph 52 % 0 in
16:37 83.7 °F 63 °F 30 in NNW 2 mph 7 mph 50 % 0 in
16:42 83.7 °F 63.7 °F 30 in NE 5 mph 7 mph 51 % 0 in
16:47 83.5 °F 64 °F 30 in East 3 mph 8 mph 52 % 0 in
16:52 83.5 °F 63.5 °F 30 in East 1 mph 8 mph 51 % 0 in
16:57 83.7 °F 64.8 °F 30 in ESE 2 mph 8 mph 53 % 0 in
17:02 83.8 °F 64.9 °F 30 in Calm   8 mph 53 % 0 in
17:12 84.2 °F 65.3 °F 30 in Calm   5 mph 53 % 0 in
17:17 84.6 °F 64.4 °F 30 in ENE 1 mph 6 mph 51 % 0 in
17:22 84 °F 65.1 °F 30 in SSE 2 mph 6 mph 53 % 0 in
17:32 84.6 °F 64.4 °F 30 in Calm   7 mph 51 % 0 in
17:37 84.6 °F 64.9 °F 30 in SW 2 mph 7 mph 52 % 0 in
17:42 84.4 °F 64.8 °F 30 in SSE 1 mph 7 mph 52 % 0 in
17:47 84.6 °F 64.9 °F 30 in Calm   7 mph 52 % 0 in
17:52 84.7 °F 65.1 °F 30 in ESE 3 mph 7 mph 52 % 0 in
18:02 84 °F 63.9 °F 30 in South 2 mph 6 mph 51 % 0 in
18:12 83.3 °F 64.4 °F 30 in Calm   6 mph 53 % 0 in
18:17 83.5 °F 64.6 °F 30 in ESE 2 mph 5 mph 53 % 0 in
18:22 83.3 °F 63.9 °F 30 in ESE 4 mph 5 mph 52 % 0 in
18:32 83.5 °F 64 °F 30 in Calm   5 mph 52 % 0 in
18:37 83.7 °F 64.2 °F 30 in East 2 mph 5 mph 52 % 0 in
18:42 83.5 °F 64 °F 30 in ESE 2 mph 4 mph 52 % 0 in
18:47 83.5 °F 63.5 °F 30 in ENE 2 mph 4 mph 51 % 0 in
18:52 83.5 °F 63.5 °F 30 in Calm   3 mph 51 % 0 in
18:57 83.7 °F 63.7 °F 30 in Calm   3 mph 51 % 0 in
19:07 83.7 °F 63 °F 30 in ESE 3 mph 3 mph 50 % 0 in
19:12 83.3 °F 63.3 °F 30 in East 2 mph 3 mph 51 % 0 in
19:17 83.1 °F 63.7 °F 30 in Calm   5 mph 52 % 0 in
19:22 83.5 °F 64 °F 30 in SE 2 mph 5 mph 52 % 0 in
19:32 83.7 °F 64.2 °F 30 in ESE 2 mph 3 mph 52 % 0 in
19:37 83.1 °F 64.8 °F 30 in East 1 mph 4 mph 54 % 0 in
19:42 82.8 °F 65.5 °F 30 in ENE 2 mph 4 mph 56 % 0 in
19:47 82.6 °F 65.8 °F 30 in East 2 mph 5 mph 57 % 0 in
19:52 82.2 °F 66 °F 30 in Calm   5 mph 58 % 0 in
19:57 82 °F 66.4 °F 30 in Calm   5 mph 59 % 0 in
20:02 81.7 °F 66 °F 30 in ENE 2 mph 5 mph 59 % 0 in
20:07 81.3 °F 66 °F 30 in ENE 2 mph 3 mph 60 % 0 in
20:12 81.1 °F 66.4 °F 30 in ENE 1 mph 3 mph 61 % 0 in
20:17 80.8 °F 66.6 °F 30 in ENE 1 mph 3 mph 62 % 0 in
20:22 80.2 °F 66 °F 30 in East 1 mph 3 mph 62 % 0 in
20:27 80.1 °F 66.4 °F 30 in ENE 2 mph 4 mph 63 % 0 in
20:32 79.7 °F 66.4 °F 30 in ENE 2 mph 4 mph 64 % 0 in
20:42 79 °F 66.2 °F 30 in NE 2 mph 4 mph 65 % 0 in
20:47 78.6 °F 66.4 °F 30 in NE 2 mph 2 mph 66 % 0 in
20:52 78.3 °F 66 °F 30 in NE 2 mph 2 mph 66 % 0 in
20:57 77.9 °F 66 °F 30 in NNE 2 mph 3 mph 67 % 0 in
21:02 77.4 °F 66.4 °F 30 in NE 3 mph 3 mph 69 % 0 in
21:12 76.1 °F 65.7 °F 30 in NNE 4 mph 4 mph 70 % 0 in
21:22 75.6 °F 65.5 °F 30 in NNE 3 mph 6 mph 71 % 0 in
21:32 75 °F 65.3 °F 30 in NE 1 mph 8 mph 72 % 0 in
21:37 74.8 °F 65.7 °F 30 in NE 5 mph 10 mph 73 % 0 in
21:42 74.8 °F 65.7 °F 30 in NE 5 mph 10 mph 73 % 0 in
21:47 74.8 °F 65.7 °F 30 in NE 3 mph 9 mph 73 % 0 in
21:52 74.7 °F 65.5 °F 30 in NNE 2 mph 9 mph 73 % 0 in
21:57 74.5 °F 65.3 °F 30 in NNE 4 mph 8 mph 73 % 0 in
22:07 73.9 °F 65.1 °F 30 in NE 4 mph 7 mph 74 % 0 in
22:12 73.9 °F 65.1 °F 30 in NNE 4 mph 7 mph 74 % 0 in
22:17 73.8 °F 64.9 °F 30 in NE 3 mph 8 mph 74 % 0 in
22:22 73.8 °F 64.9 °F 30 in NNE 6 mph 8 mph 74 % 0 in
22:27 73.8 °F 64.6 °F 30 in NNE 4 mph 10 mph 73 % 0 in
22:32 73.6 °F 64.4 °F 30 in ENE 4 mph 10 mph 73 % 0 in
22:42 73.2 °F 64.4 °F 30 in ENE 2 mph 10 mph 74 % 0 in
22:52 73 °F 63.9 °F 30 in ENE 7 mph 10 mph 73 % 0 in
22:57 72.9 °F 64 °F 30 in NE 6 mph 14 mph 74 % 0 in
23:02 72.9 °F 64 °F 30 in ENE 5 mph 14 mph 74 % 0 in
23:07 72.7 °F 63.9 °F 30 in NE 7 mph 10 mph 74 % 0 in
23:12 72.7 °F 63.9 °F 30 in NNE 3 mph 10 mph 74 % 0 in
23:17 72.3 °F 63.5 °F 30 in NE 7 mph 12 mph 74 % 0 in
23:22 72.1 °F 63.3 °F 30 in NNE 9 mph 12 mph 74 % 0 in
23:32 72 °F 63.1 °F 30 in ENE 5 mph 11 mph 74 % 0 in
23:37 71.8 °F 63.5 °F 30 in NE 6 mph 11 mph 75 % 0 in
23:42 71.8 °F 63.5 °F 30 in NNE 2 mph 11 mph 75 % 0 in
23:52 71.4 °F 63.1 °F 30 in NE 6 mph 10 mph 75 % 0 in
23:57 71.2 °F 63 °F 30 in NE 7 mph 10 mph 75 % 0 in
Meteo18
Compliments of Weather Underground - 4 mb

Script developed by  Jim McMurry - jmcmurry@mwt.net Adapted for the template by  Wim van der Kuil - Leuven-Template.eu

You find our weather info also at:

European Weather Network

Weather Underground

Equipment we use:

Weather-station
Davis Vue

Weather-program
Meteohub

Weather-server
Raspberry PI 2 B+

Provider
1 and 1

Davis Vue

Meteohub

Raspberry PI 2 B+

1 and 1